createdAt,value
2023-03-31T00:02:30.164Z,30.02
2023-03-31T00:05:18.454Z,20.67
2023-03-31T00:08:03.942Z,27.52
2023-03-31T00:10:49.203Z,32.08
2023-03-31T00:13:34.928Z,28.60
2023-03-31T00:16:21.066Z,26.45
2023-03-31T00:19:10.250Z,30.60
2023-03-31T00:21:55.545Z,26.10
2023-03-31T00:24:41.398Z,28.00
2023-03-31T00:27:28.340Z,27.80
2023-03-31T00:30:14.605Z,22.52
2023-03-31T00:33:01.126Z,27.77
2023-03-31T00:35:50.917Z,23.17
2023-03-31T00:38:36.405Z,21.27
2023-03-31T00:41:22.664Z,22.50
2023-03-31T00:44:19.236Z,20.65
2023-03-31T00:47:13.041Z,23.70
2023-03-31T00:49:58.857Z,17.80
2023-03-31T00:52:47.401Z,25.60
2023-03-31T00:55:41.605Z,22.00
2023-03-31T00:58:29.824Z,15.07
2023-03-31T01:01:19.582Z,20.58
2023-03-31T01:04:07.623Z,16.48
2023-03-31T01:07:11.332Z,12.40
2023-03-31T01:10:03.615Z,16.73
2023-03-31T01:12:53.690Z,22.80
2023-03-31T01:15:39.632Z,21.40
2023-03-31T01:18:25.690Z,16.40
2023-03-31T01:21:47.312Z,16.00
2023-03-31T01:25:07.112Z,23.50
2023-03-31T01:28:40.217Z,17.02
2023-03-31T01:31:26.017Z,22.67
2023-03-31T01:34:43.866Z,17.05
2023-03-31T01:37:48.916Z,18.92
2023-03-31T01:40:47.593Z,17.80
2023-03-31T01:43:55.732Z,21.13
2023-03-31T01:47:05.213Z,19.98
2023-03-31T01:50:13.675Z,20.60
2023-03-31T01:53:31.257Z,15.80
2023-03-31T01:56:37.234Z,25.73
2023-03-31T01:59:42.532Z,21.58
2023-03-31T02:02:41.154Z,28.90
2023-03-31T02:05:33.051Z,20.60
2023-03-31T02:08:26.376Z,23.05
2023-03-31T02:11:13.391Z,26.63
2023-03-31T02:14:02.112Z,22.52
2023-03-31T02:16:58.570Z,21.02
2023-03-31T02:19:51.909Z,22.65
2023-03-31T02:22:41.644Z,25.75
2023-03-31T02:25:35.361Z,21.83
2023-03-31T02:28:26.440Z,20.00
2023-03-31T02:31:31.229Z,19.85
2023-03-31T02:34:16.880Z,16.17
2023-03-31T02:37:02.902Z,11.60
2023-03-31T02:39:52.177Z,12.40
2023-03-31T02:42:39.526Z,17.48
2023-03-31T02:45:46.404Z,19.80
2023-03-31T02:48:40.183Z,13.60
2023-03-31T02:51:37.285Z,21.98
2023-03-31T02:54:40.599Z,21.67
2023-03-31T02:57:28.794Z,23.70
2023-03-31T03:00:35.771Z,22.98
2023-03-31T03:03:37.582Z,21.50
2023-03-31T03:06:59.969Z,23.48
2023-03-31T03:10:03.873Z,22.50
2023-03-31T03:13:27.501Z,24.75
2023-03-31T03:16:21.756Z,26.55
2023-03-31T03:19:08.503Z,27.45
2023-03-31T03:21:56.666Z,22.35
2023-03-31T03:24:42.610Z,24.90
2023-03-31T03:27:29.087Z,18.70
2023-03-31T03:30:15.287Z,16.88
2023-03-31T03:33:00.554Z,20.92
2023-03-31T03:35:46.409Z,19.60
2023-03-31T03:38:33.874Z,21.90
2023-03-31T03:41:22.181Z,14.52
2023-03-31T03:44:08.276Z,20.65
2023-03-31T03:46:56.699Z,20.45
2023-03-31T03:49:43.704Z,17.85
2023-03-31T03:52:31.929Z,21.67
2023-03-31T03:55:17.899Z,29.02
2023-03-31T03:58:03.035Z,24.23
2023-03-31T04:00:48.850Z,28.00
2023-03-31T04:03:36.634Z,26.23
2023-03-31T04:06:22.124Z,31.98
2023-03-31T04:09:08.262Z,17.27
2023-03-31T04:11:53.413Z,22.77
2023-03-31T04:14:39.047Z,22.88
2023-03-31T04:17:37.386Z,21.40
2023-03-31T04:20:27.901Z,22.35
2023-03-31T04:23:15.160Z,21.02
2023-03-31T04:26:02.835Z,16.88
2023-03-31T04:28:50.802Z,20.33
2023-03-31T04:31:43.294Z,20.05
2023-03-31T04:34:35.642Z,26.63
2023-03-31T04:37:22.729Z,23.63
2023-03-31T04:40:09.647Z,20.63
2023-03-31T04:42:54.921Z,21.55
2023-03-31T04:45:40.557Z,17.02
2023-03-31T04:48:26.420Z,23.50
2023-03-31T04:51:11.683Z,17.95
2023-03-31T04:53:58.587Z,17.42
2023-03-31T04:56:44.284Z,14.48
2023-03-31T04:59:32.382Z,15.52
2023-03-31T05:02:25.193Z,15.75
2023-03-31T05:05:12.596Z,18.08
2023-03-31T05:07:57.900Z,18.60
2023-03-31T05:10:43.550Z,14.60
2023-03-31T05:13:29.243Z,13.77
2023-03-31T05:16:16.561Z,14.43
2023-03-31T05:19:02.864Z,17.80
2023-03-31T05:21:51.133Z,14.80
2023-03-31T05:24:36.706Z,15.60
2023-03-31T05:27:21.941Z,13.20
2023-03-31T05:30:08.399Z,13.23
2023-03-31T05:32:57.052Z,14.13
2023-03-31T05:35:42.205Z,14.27
2023-03-31T05:38:29.238Z,18.38
2023-03-31T05:41:17.023Z,12.70
2023-03-31T05:44:05.094Z,11.55
2023-03-31T05:46:52.067Z,17.15
2023-03-31T05:49:38.496Z,12.70
2023-03-31T05:52:43.888Z,14.85
2023-03-31T05:55:29.622Z,11.85
2023-03-31T05:58:18.740Z,17.10
2023-03-31T06:01:07.723Z,11.15
2023-03-31T06:03:56.569Z,9.52
2023-03-31T06:06:42.987Z,7.53
2023-03-31T06:09:31.247Z,8.25
2023-03-31T06:12:16.843Z,7.40
2023-03-31T06:15:02.888Z,8.52
2023-03-31T06:17:48.588Z,8.48
2023-03-31T06:20:34.187Z,6.85
2023-03-31T06:23:22.261Z,10.15
2023-03-31T06:26:08.790Z,7.97
2023-03-31T06:28:57.960Z,7.68
2023-03-31T06:31:43.320Z,12.98
2023-03-31T06:34:28.963Z,6.30
2023-03-31T06:37:14.692Z,10.32
2023-03-31T06:39:59.896Z,11.80
2023-03-31T06:42:45.419Z,8.60
2023-03-31T06:45:36.988Z,10.90
2023-03-31T06:48:26.247Z,10.25
2023-03-31T06:51:13.095Z,10.18
2023-03-31T06:53:58.612Z,13.73
2023-03-31T06:56:44.364Z,10.40
2023-03-31T06:59:29.565Z,7.63
2023-03-31T07:02:15.249Z,6.18
2023-03-31T07:05:00.663Z,10.90
2023-03-31T07:07:48.462Z,8.98
2023-03-31T07:10:35.162Z,11.73
2023-03-31T07:13:20.789Z,8.23
2023-03-31T07:16:07.307Z,12.98
2023-03-31T07:18:54.792Z,10.35
2023-03-31T07:21:40.435Z,11.70
2023-03-31T07:24:30.945Z,9.30
2023-03-31T07:27:16.530Z,11.57
2023-03-31T07:30:03.427Z,14.25
2023-03-31T07:32:50.269Z,17.20
2023-03-31T07:35:39.569Z,8.48
2023-03-31T07:38:25.035Z,11.93
2023-03-31T07:41:13.078Z,12.20
2023-03-31T07:43:59.415Z,11.50
2023-03-31T07:46:44.898Z,11.95
2023-03-31T07:49:34.620Z,16.02
2023-03-31T07:52:21.587Z,15.45
2023-03-31T07:55:10.795Z,13.02
2023-03-31T07:57:57.286Z,16.98
2023-03-31T08:00:42.746Z,18.80
2023-03-31T08:03:28.420Z,17.17
2023-03-31T08:06:19.905Z,18.80
2023-03-31T08:09:08.137Z,20.25
2023-03-31T08:11:55.901Z,16.23
2023-03-31T08:14:41.954Z,22.10
2023-03-31T08:17:27.444Z,19.20
2023-03-31T08:20:13.475Z,24.65
2023-03-31T08:22:59.038Z,21.33
2023-03-31T08:25:44.835Z,22.63
2023-03-31T08:28:30.674Z,21.98
2023-03-31T08:31:17.332Z,13.60
2023-03-31T08:34:03.181Z,13.05
2023-03-31T08:36:51.417Z,17.40
2023-03-31T08:39:37.308Z,16.92
2023-03-31T08:42:50.486Z,14.93
2023-03-31T08:45:43.919Z,14.85
2023-03-31T08:48:48.965Z,20.73
2023-03-31T08:51:38.186Z,28.05
2023-03-31T08:54:33.821Z,21.92
2023-03-31T08:58:01.023Z,31.35
2023-03-31T09:01:17.105Z,19.73
2023-03-31T09:04:28.564Z,19.30
2023-03-31T09:07:41.672Z,23.45
2023-03-31T09:10:52.787Z,17.35
2023-03-31T09:14:08.874Z,27.25
2023-03-31T09:17:00.401Z,19.77
2023-03-31T09:19:59.188Z,21.52
2023-03-31T09:22:52.503Z,14.60
2023-03-31T09:25:41.476Z,19.45
2023-03-31T09:28:34.966Z,24.48
2023-03-31T09:31:22.100Z,23.10
2023-03-31T09:34:14.912Z,18.90
2023-03-31T09:37:00.563Z,21.90
2023-03-31T09:39:46.418Z,29.30
2023-03-31T09:42:31.757Z,22.45
2023-03-31T09:45:21.724Z,20.45
2023-03-31T09:48:23.478Z,25.55
2023-03-31T09:51:18.315Z,24.38
2023-03-31T09:54:16.004Z,22.67
2023-03-31T09:57:03.095Z,28.48
2023-03-31T09:59:52.166Z,23.70
2023-03-31T10:02:40.623Z,19.33
2023-03-31T10:05:48.670Z,22.58
2023-03-31T10:08:57.697Z,13.15
2023-03-31T10:12:03.477Z,20.60
2023-03-31T10:14:51.584Z,19.02
2023-03-31T10:17:54.755Z,19.10
2023-03-31T10:20:49.121Z,16.92
2023-03-31T10:23:36.004Z,30.65
2023-03-31T10:26:29.502Z,21.63
2023-03-31T10:29:21.976Z,22.85
2023-03-31T10:32:19.536Z,18.08
2023-03-31T10:35:25.040Z,22.90
2023-03-31T10:40:59.673Z,24.40
2023-03-31T10:43:51.527Z,23.38
2023-03-31T10:46:54.372Z,28.50
2023-03-31T10:49:41.832Z,24.10
2023-03-31T10:52:27.901Z,17.08
2023-03-31T10:55:18.461Z,22.13
2023-03-31T10:58:17.248Z,23.90
2023-03-31T11:01:33.163Z,19.85
2023-03-31T11:07:23.674Z,26.00
2023-03-31T11:10:28.117Z,21.98
2023-03-31T11:13:42.026Z,14.43
2023-03-31T11:16:51.308Z,17.48
2023-03-31T11:20:11.290Z,20.75
2023-03-31T11:23:25.597Z,18.02
2023-03-31T11:26:22.882Z,16.60
2023-03-31T11:29:23.173Z,16.15
2023-03-31T11:32:44.597Z,13.40
2023-03-31T11:35:59.956Z,16.83
2023-03-31T11:39:21.981Z,10.32
2023-03-31T11:42:16.280Z,10.07
2023-03-31T11:45:18.263Z,12.23
2023-03-31T11:48:10.639Z,15.52
2023-03-31T11:50:57.510Z,13.30
2023-03-31T11:53:45.627Z,10.32
2023-03-31T11:56:37.112Z,10.35
2023-03-31T11:59:27.474Z,9.60
2023-03-31T12:02:48.384Z,14.68
2023-03-31T12:05:37.356Z,10.77
2023-03-31T12:08:58.756Z,10.10
2023-03-31T12:12:09.880Z,12.77
2023-03-31T12:15:12.313Z,10.75
2023-03-31T12:18:06.040Z,15.88
2023-03-31T12:20:57.616Z,17.80
2023-03-31T12:23:45.811Z,12.43
2023-03-31T12:27:02.185Z,17.45
2023-03-31T12:29:51.361Z,16.50
2023-03-31T12:32:44.882Z,20.50
2023-03-31T12:35:59.262Z,19.65
2023-03-31T12:39:02.182Z,17.65
2023-03-31T12:42:20.208Z,13.20
2023-03-31T12:45:24.502Z,14.45
2023-03-31T12:48:50.335Z,13.35
2023-03-31T12:51:48.941Z,9.87
2023-03-31T12:55:09.754Z,14.13
2023-03-31T12:58:29.594Z,13.15
2023-03-31T13:01:25.955Z,12.93
2023-03-31T13:04:22.313Z,14.05
2023-03-31T13:07:28.904Z,8.90
2023-03-31T13:10:14.764Z,9.60
2023-03-31T13:13:20.554Z,7.47
2023-03-31T13:16:05.883Z,6.78
2023-03-31T13:18:54.126Z,5.47
2023-03-31T13:21:59.420Z,8.27
2023-03-31T13:24:45.004Z,10.52
2023-03-31T13:27:34.216Z,11.40
2023-03-31T13:30:41.453Z,12.45
2023-03-31T13:33:42.666Z,9.43
2023-03-31T13:36:34.489Z,9.15
2023-03-31T13:39:29.012Z,14.85
2023-03-31T13:42:38.901Z,11.38
2023-03-31T13:45:42.019Z,15.25
2023-03-31T13:48:54.502Z,17.77
2023-03-31T13:51:59.691Z,13.43
2023-03-31T13:55:07.124Z,17.23
2023-03-31T13:58:05.409Z,15.60
2023-03-31T14:01:16.480Z,17.58
2023-03-31T14:04:11.321Z,9.57
2023-03-31T14:07:12.614Z,14.82
2023-03-31T14:09:59.606Z,10.98
2023-03-31T14:12:45.051Z,13.65
2023-03-31T14:15:30.428Z,12.50
2023-03-31T14:18:26.482Z,13.40
2023-03-31T14:21:27.828Z,7.78
2023-03-31T14:24:43.910Z,8.18
2023-03-31T14:27:47.781Z,8.32
2023-03-31T14:31:04.994Z,8.07
2023-03-31T14:34:28.720Z,7.15
2023-03-31T14:37:17.759Z,13.10
2023-03-31T14:40:07.314Z,13.27
2023-03-31T14:42:55.713Z,11.88
2023-03-31T14:45:43.767Z,10.70
2023-03-31T14:48:33.104Z,7.30
2023-03-31T14:51:30.596Z,10.68
2023-03-31T14:54:18.524Z,6.85
2023-03-31T14:57:05.895Z,15.55
2023-03-31T14:59:54.031Z,6.03
2023-03-31T15:02:44.346Z,7.15
2023-03-31T15:05:44.844Z,9.63
2023-03-31T15:08:32.315Z,4.78
2023-03-31T15:11:21.083Z,7.30
2023-03-31T15:14:09.188Z,7.53
2023-03-31T15:16:57.271Z,9.32
2023-03-31T15:19:42.530Z,6.22
2023-03-31T15:22:30.141Z,11.82
2023-03-31T15:25:18.452Z,6.03
2023-03-31T15:28:07.626Z,9.25
2023-03-31T15:31:06.857Z,7.68
2023-03-31T15:33:58.991Z,9.68
2023-03-31T15:36:44.783Z,13.23
2023-03-31T15:39:32.982Z,6.32
2023-03-31T15:42:19.577Z,7.15
2023-03-31T15:45:38.876Z,7.20
2023-03-31T15:48:36.089Z,6.88
2023-03-31T15:51:31.122Z,7.70
2023-03-31T15:54:38.300Z,8.82
2023-03-31T15:57:32.928Z,9.45
2023-03-31T16:00:52.521Z,6.63
2023-03-31T16:03:41.287Z,9.02
2023-03-31T16:06:57.889Z,7.10
2023-03-31T16:10:04.599Z,4.60
2023-03-31T16:13:02.964Z,9.27
2023-03-31T16:15:51.762Z,6.22
2023-03-31T16:18:41.910Z,6.03
2023-03-31T16:21:35.556Z,6.28
2023-03-31T16:24:28.714Z,5.13
2023-03-31T16:27:14.759Z,6.55
2023-03-31T16:30:20.736Z,13.45
2023-03-31T16:33:07.508Z,10.35
2023-03-31T16:35:56.127Z,7.82
2023-03-31T16:38:42.022Z,4.55
2023-03-31T16:41:36.275Z,6.07
2023-03-31T16:44:22.383Z,5.22
2023-03-31T16:47:07.891Z,10.13
2023-03-31T16:49:53.253Z,6.05
2023-03-31T16:52:39.753Z,8.32
2023-03-31T16:55:26.007Z,6.32
2023-03-31T16:58:11.914Z,8.98
2023-03-31T17:00:58.618Z,14.25
2023-03-31T17:03:47.595Z,6.97
2023-03-31T17:06:33.257Z,8.50
2023-03-31T17:09:21.577Z,11.35
2023-03-31T17:12:06.936Z,9.65
2023-03-31T17:14:52.596Z,7.78
2023-03-31T17:17:38.416Z,6.85
2023-03-31T17:20:24.890Z,8.10
2023-03-31T17:23:16.262Z,10.63
2023-03-31T17:26:02.119Z,11.63
2023-03-31T17:28:47.890Z,12.07
2023-03-31T17:31:33.363Z,12.55
2023-03-31T17:34:19.074Z,10.40
2023-03-31T17:37:06.186Z,11.73
2023-03-31T17:39:52.694Z,16.20
2023-03-31T17:42:38.112Z,14.95
2023-03-31T17:45:23.982Z,17.15
2023-03-31T17:48:09.985Z,14.73
2023-03-31T17:50:57.481Z,17.25
2023-03-31T17:53:49.121Z,19.08
2023-03-31T17:56:34.768Z,14.70
2023-03-31T17:59:20.535Z,24.60
2023-03-31T18:02:06.870Z,18.05
2023-03-31T18:04:52.641Z,14.63
2023-03-31T18:07:38.177Z,18.23
2023-03-31T18:10:23.788Z,12.60
2023-03-31T18:13:09.736Z,25.13
2023-03-31T18:15:55.304Z,18.58
2023-03-31T18:18:41.619Z,22.05
2023-03-31T18:21:30.137Z,27.30
2023-03-31T18:24:17.100Z,15.70
2023-03-31T18:27:02.813Z,24.33
2023-03-31T18:29:47.954Z,24.23
2023-03-31T18:32:33.661Z,18.10
2023-03-31T18:35:20.036Z,17.15
2023-03-31T18:38:08.127Z,20.08
2023-03-31T18:40:54.394Z,16.08
2023-03-31T18:43:39.731Z,20.90
2023-03-31T18:46:25.612Z,25.75
2023-03-31T18:49:11.969Z,21.70
2023-03-31T18:51:58.682Z,27.48
2023-03-31T18:54:44.347Z,23.55
2023-03-31T18:57:30.070Z,27.70
2023-03-31T19:00:15.967Z,36.08
2023-03-31T19:03:02.056Z,32.85
2023-03-31T19:05:47.852Z,31.38
2023-03-31T19:08:35.515Z,30.52
2023-03-31T19:11:20.988Z,32.28
2023-03-31T19:14:06.808Z,34.40
2023-03-31T19:16:52.382Z,32.83
2023-03-31T19:19:37.844Z,29.48
2023-03-31T19:22:25.461Z,37.38
2023-03-31T19:25:17.039Z,35.13
2023-03-31T19:28:05.238Z,33.92
2023-03-31T19:30:53.139Z,37.67
2023-03-31T19:33:38.669Z,36.92
2023-03-31T19:36:29.495Z,35.55
2023-03-31T19:39:14.930Z,31.58
2023-03-31T19:42:00.807Z,36.83
2023-03-31T19:44:46.388Z,32.75
2023-03-31T19:47:32.106Z,30.45
2023-03-31T19:50:17.615Z,27.73
2023-03-31T19:53:03.353Z,28.13
2023-03-31T19:56:00.379Z,30.75
2023-03-31T19:58:47.197Z,26.13
2023-03-31T20:01:33.100Z,24.67
2023-03-31T20:04:19.880Z,21.92
2023-03-31T20:07:06.609Z,25.73
2023-03-31T20:09:52.345Z,27.15
2023-03-31T20:12:40.641Z,24.55
2023-03-31T20:15:26.065Z,25.33
2023-03-31T20:18:11.547Z,24.10
2023-03-31T20:21:11.244Z,25.20
2023-03-31T20:23:57.256Z,23.00
2023-03-31T20:26:45.133Z,47.00
2023-03-31T20:29:30.950Z,30.60
2023-03-31T20:32:17.295Z,30.63
2023-03-31T20:35:03.117Z,31.40
2023-03-31T20:37:48.324Z,35.65
2023-03-31T20:40:33.831Z,33.20
2023-03-31T20:43:19.354Z,58.13
2023-03-31T20:46:09.004Z,53.00
2023-03-31T20:48:57.150Z,42.75
2023-03-31T20:51:42.686Z,43.85
2023-03-31T20:54:28.175Z,43.38
2023-03-31T20:57:13.548Z,34.85
2023-03-31T21:00:01.774Z,31.13
2023-03-31T21:02:47.076Z,44.22
2023-03-31T21:05:32.937Z,36.58
2023-03-31T21:08:19.150Z,37.00
2023-03-31T21:11:06.021Z,37.92
2023-03-31T21:13:53.174Z,36.38
2023-03-31T21:16:40.058Z,50.35
2023-03-31T21:19:26.439Z,51.17
2023-03-31T21:22:11.826Z,58.08
2023-03-31T21:24:57.332Z,65.50
2023-03-31T21:27:42.545Z,63.40
2023-03-31T21:30:28.202Z,57.40
2023-03-31T21:33:17.553Z,73.25
2023-03-31T21:36:02.905Z,84.22
2023-03-31T21:38:57.244Z,82.15
2023-03-31T21:41:45.588Z,71.65
2023-03-31T21:44:31.228Z,70.72
2023-03-31T21:47:19.612Z,63.40
2023-03-31T21:50:05.665Z,85.00
2023-03-31T21:52:51.370Z,77.80
2023-03-31T21:55:38.129Z,77.95
2023-03-31T21:58:31.830Z,79.53
2023-03-31T22:01:27.913Z,77.20
2023-03-31T22:04:14.677Z,89.57
2023-03-31T22:07:00.020Z,76.03
2023-03-31T22:09:45.886Z,67.18
2023-03-31T22:12:31.909Z,71.75
2023-03-31T22:15:17.856Z,54.10
2023-03-31T22:18:03.313Z,58.60
2023-03-31T22:20:52.337Z,58.35
2023-03-31T22:23:38.489Z,70.45
2023-03-31T22:26:25.811Z,83.97
2023-03-31T22:29:15.908Z,62.08
2023-03-31T22:32:01.498Z,73.13
2023-03-31T22:34:47.137Z,62.08
2023-03-31T22:37:33.811Z,54.95
2023-03-31T22:40:19.601Z,57.72
2023-03-31T22:43:04.966Z,67.88
2023-03-31T22:45:50.598Z,59.28
2023-03-31T22:48:36.105Z,73.28
2023-03-31T22:51:23.232Z,71.85
2023-03-31T22:54:16.068Z,82.63
2023-03-31T22:57:01.662Z,85.68
2023-03-31T22:59:49.574Z,75.65
2023-03-31T23:02:34.907Z,81.72
2023-03-31T23:05:21.764Z,73.63
2023-03-31T23:08:07.278Z,55.60
2023-03-31T23:10:57.794Z,69.72
2023-03-31T23:13:43.423Z,76.90
2023-03-31T23:16:31.321Z,81.70
2023-03-31T23:19:18.415Z,61.47
2023-03-31T23:22:04.046Z,61.50
2023-03-31T23:24:49.674Z,64.72
2023-03-31T23:27:34.697Z,53.05
2023-03-31T23:30:21.736Z,57.25
2023-03-31T23:33:10.256Z,72.63
2023-03-31T23:36:04.963Z,78.25
2023-03-31T23:38:52.929Z,83.10
2023-03-31T23:41:38.206Z,97.38
2023-03-31T23:44:25.132Z,105.88
2023-03-31T23:47:10.620Z,106.57
2023-03-31T23:50:00.340Z,96.57
2023-03-31T23:52:45.448Z,123.93
2023-03-31T23:55:31.349Z,128.30
2023-03-31T23:58:17.302Z,92.97
